sensor_id;sensor_type;location;lat;lon;timestamp;P1;durP1;ratioP1;P2;durP2;ratioP2
64543;SDS011;50936;51.660;5.616;2024-01-15T00:02:39;5.47;;;3.58;;
64543;SDS011;50936;51.660;5.616;2024-01-15T00:05:26;4.47;;;3.03;;
64543;SDS011;50936;51.660;5.616;2024-01-15T00:08:13;5.45;;;3.85;;
64543;SDS011;50936;51.660;5.616;2024-01-15T00:11:01;5.60;;;3.53;;
64543;SDS011;50936;51.660;5.616;2024-01-15T00:13:48;5.20;;;3.45;;
64543;SDS011;50936;51.660;5.616;2024-01-15T00:16:35;5.10;;;3.65;;
64543;SDS011;50936;51.660;5.616;2024-01-15T00:19:22;5.22;;;3.08;;
64543;SDS011;50936;51.660;5.616;2024-01-15T00:22:11;7.03;;;3.50;;
64543;SDS011;50936;51.660;5.616;2024-01-15T00:24:58;5.45;;;3.85;;
64543;SDS011;50936;51.660;5.616;2024-01-15T00:27:45;4.63;;;2.95;;
64543;SDS011;50936;51.660;5.616;2024-01-15T00:30:32;5.43;;;3.42;;
64543;SDS011;50936;51.660;5.616;2024-01-15T00:33:19;5.78;;;3.15;;
64543;SDS011;50936;51.660;5.616;2024-01-15T00:36:07;4.82;;;3.17;;
64543;SDS011;50936;51.660;5.616;2024-01-15T00:38:54;6.18;;;3.40;;
64543;SDS011;50936;51.660;5.616;2024-01-15T00:41:42;4.57;;;2.97;;
64543;SDS011;50936;51.660;5.616;2024-01-15T00:44:29;4.47;;;3.03;;
64543;SDS011;50936;51.660;5.616;2024-01-15T00:47:18;5.65;;;3.20;;
64543;SDS011;50936;51.660;5.616;2024-01-15T00:50:05;5.38;;;3.33;;
64543;SDS011;50936;51.660;5.616;2024-01-15T00:52:53;5.05;;;3.22;;
64543;SDS011;50936;51.660;5.616;2024-01-15T00:55:40;5.35;;;2.88;;
64543;SDS011;50936;51.660;5.616;2024-01-15T00:58:27;5.68;;;3.22;;
64543;SDS011;50936;51.660;5.616;2024-01-15T01:01:14;4.93;;;2.92;;
64543;SDS011;50936;51.660;5.616;2024-01-15T01:04:02;4.85;;;2.97;;
64543;SDS011;50936;51.660;5.616;2024-01-15T01:06:49;4.50;;;2.80;;
64543;SDS011;50936;51.660;5.616;2024-01-15T01:09:36;4.03;;;2.47;;
64543;SDS011;50936;51.660;5.616;2024-01-15T01:12:24;5.30;;;2.97;;
64543;SDS011;50936;51.660;5.616;2024-01-15T01:15:11;5.15;;;2.78;;
64543;SDS011;50936;51.660;5.616;2024-01-15T01:17:58;4.82;;;3.00;;
64543;SDS011;50936;51.660;5.616;2024-01-15T01:20:46;4.82;;;2.70;;
64543;SDS011;50936;51.660;5.616;2024-01-15T01:23:33;4.53;;;2.55;;
64543;SDS011;50936;51.660;5.616;2024-01-15T01:26:20;5.65;;;2.88;;
64543;SDS011;50936;51.660;5.616;2024-01-15T01:29:07;5.13;;;2.67;;
64543;SDS011;50936;51.660;5.616;2024-01-15T01:31:55;4.78;;;2.65;;
64543;SDS011;50936;51.660;5.616;2024-01-15T01:34:43;4.25;;;2.67;;
64543;SDS011;50936;51.660;5.616;2024-01-15T01:37:30;3.80;;;2.38;;
64543;SDS011;50936;51.660;5.616;2024-01-15T01:40:17;4.47;;;2.58;;
64543;SDS011;50936;51.660;5.616;2024-01-15T01:43:05;4.78;;;2.72;;
64543;SDS011;50936;51.660;5.616;2024-01-15T01:45:53;4.65;;;2.42;;
64543;SDS011;50936;51.660;5.616;2024-01-15T01:48:45;4.05;;;2.53;;
64543;SDS011;50936;51.660;5.616;2024-01-15T01:51:33;4.05;;;2.40;;
64543;SDS011;50936;51.660;5.616;2024-01-15T01:54:25;3.88;;;2.42;;
64543;SDS011;50936;51.660;5.616;2024-01-15T01:57:16;5.10;;;2.50;;
64543;SDS011;50936;51.660;5.616;2024-01-15T02:00:05;4.38;;;2.13;;
64543;SDS011;50936;51.660;5.616;2024-01-15T02:02:59;4.00;;;2.40;;
64543;SDS011;50936;51.660;5.616;2024-01-15T02:05:47;3.60;;;2.50;;
64543;SDS011;50936;51.660;5.616;2024-01-15T02:08:36;3.75;;;2.42;;
64543;SDS011;50936;51.660;5.616;2024-01-15T02:11:23;4.80;;;2.58;;
64543;SDS011;50936;51.660;5.616;2024-01-15T02:14:11;3.65;;;2.50;;
64543;SDS011;50936;51.660;5.616;2024-01-15T02:16:58;4.03;;;2.40;;
64543;SDS011;50936;51.660;5.616;2024-01-15T02:19:45;3.50;;;2.08;;
64543;SDS011;50936;51.660;5.616;2024-01-15T02:22:33;3.55;;;2.10;;
64543;SDS011;50936;51.660;5.616;2024-01-15T02:25:20;4.28;;;2.50;;
64543;SDS011;50936;51.660;5.616;2024-01-15T02:28:07;3.70;;;2.13;;
64543;SDS011;50936;51.660;5.616;2024-01-15T02:30:57;4.00;;;2.10;;
64543;SDS011;50936;51.660;5.616;2024-01-15T02:33:44;3.85;;;2.20;;
64543;SDS011;50936;51.660;5.616;2024-01-15T02:36:33;3.70;;;2.15;;
64543;SDS011;50936;51.660;5.616;2024-01-15T02:39:20;3.95;;;2.33;;
64543;SDS011;50936;51.660;5.616;2024-01-15T02:42:07;4.35;;;2.20;;
64543;SDS011;50936;51.660;5.616;2024-01-15T02:44:54;3.38;;;2.00;;
64543;SDS011;50936;51.660;5.616;2024-01-15T02:47:41;3.40;;;2.10;;
64543;SDS011;50936;51.660;5.616;2024-01-15T02:50:29;4.20;;;2.13;;
64543;SDS011;50936;51.660;5.616;2024-01-15T02:53:16;3.55;;;2.10;;
64543;SDS011;50936;51.660;5.616;2024-01-15T02:56:03;3.97;;;2.35;;
64543;SDS011;50936;51.660;5.616;2024-01-15T02:58:51;2.85;;;1.83;;
64543;SDS011;50936;51.660;5.616;2024-01-15T03:01:38;3.30;;;2.00;;
64543;SDS011;50936;51.660;5.616;2024-01-15T03:04:25;3.20;;;2.08;;
64543;SDS011;50936;51.660;5.616;2024-01-15T03:07:13;4.22;;;2.17;;
64543;SDS011;50936;51.660;5.616;2024-01-15T03:10:00;2.63;;;1.70;;
64543;SDS011;50936;51.660;5.616;2024-01-15T03:12:48;4.25;;;1.90;;
64543;SDS011;50936;51.660;5.616;2024-01-15T03:15:35;3.90;;;2.10;;
64543;SDS011;50936;51.660;5.616;2024-01-15T03:18:22;3.20;;;1.88;;
64543;SDS011;50936;51.660;5.616;2024-01-15T03:21:09;2.90;;;1.80;;
64543;SDS011;50936;51.660;5.616;2024-01-15T03:23:57;2.92;;;2.00;;
64543;SDS011;50936;51.660;5.616;2024-01-15T03:26:44;2.90;;;1.70;;
64543;SDS011;50936;51.660;5.616;2024-01-15T03:29:31;2.88;;;1.80;;
64543;SDS011;50936;51.660;5.616;2024-01-15T03:32:18;3.42;;;1.95;;
64543;SDS011;50936;51.660;5.616;2024-01-15T03:35:06;4.80;;;2.00;;
64543;SDS011;50936;51.660;5.616;2024-01-15T03:37:54;3.00;;;1.70;;
64543;SDS011;50936;51.660;5.616;2024-01-15T03:40:41;3.15;;;1.80;;
64543;SDS011;50936;51.660;5.616;2024-01-15T03:43:29;2.15;;;1.52;;
64543;SDS011;50936;51.660;5.616;2024-01-15T03:46:16;2.70;;;1.90;;
64543;SDS011;50936;51.660;5.616;2024-01-15T03:49:03;3.15;;;1.65;;
64543;SDS011;50936;51.660;5.616;2024-01-15T03:51:51;3.05;;;1.85;;
64543;SDS011;50936;51.660;5.616;2024-01-15T03:54:38;3.55;;;1.52;;
64543;SDS011;50936;51.660;5.616;2024-01-15T03:57:25;3.13;;;1.60;;
64543;SDS011;50936;51.660;5.616;2024-01-15T04:00:14;2.38;;;1.52;;
64543;SDS011;50936;51.660;5.616;2024-01-15T04:03:04;2.38;;;1.65;;
64543;SDS011;50936;51.660;5.616;2024-01-15T04:05:51;3.30;;;1.65;;
64543;SDS011;50936;51.660;5.616;2024-01-15T04:08:39;2.92;;;1.75;;
64543;SDS011;50936;51.660;5.616;2024-01-15T04:11:26;2.13;;;1.50;;
64543;SDS011;50936;51.660;5.616;2024-01-15T04:14:13;3.10;;;1.70;;
64543;SDS011;50936;51.660;5.616;2024-01-15T04:17:00;1.98;;;1.42;;
64543;SDS011;50936;51.660;5.616;2024-01-15T04:19:47;3.15;;;1.65;;
64543;SDS011;50936;51.660;5.616;2024-01-15T04:22:35;2.60;;;1.70;;
64543;SDS011;50936;51.660;5.616;2024-01-15T04:25:22;3.08;;;1.67;;
64543;SDS011;50936;51.660;5.616;2024-01-15T04:28:10;3.60;;;2.00;;
64543;SDS011;50936;51.660;5.616;2024-01-15T04:30:57;2.80;;;1.50;;
64543;SDS011;50936;51.660;5.616;2024-01-15T04:33:44;2.53;;;1.35;;
64543;SDS011;50936;51.660;5.616;2024-01-15T04:36:32;2.40;;;1.40;;
64543;SDS011;50936;51.660;5.616;2024-01-15T04:39:25;2.53;;;1.50;;
64543;SDS011;50936;51.660;5.616;2024-01-15T04:42:13;3.63;;;1.70;;
64543;SDS011;50936;51.660;5.616;2024-01-15T04:45:00;3.05;;;1.63;;
64543;SDS011;50936;51.660;5.616;2024-01-15T04:47:47;2.65;;;1.52;;
64543;SDS011;50936;51.660;5.616;2024-01-15T04:50:34;2.00;;;1.33;;
64543;SDS011;50936;51.660;5.616;2024-01-15T04:53:22;3.55;;;1.60;;
64543;SDS011;50936;51.660;5.616;2024-01-15T04:56:09;1.92;;;1.15;;
64543;SDS011;50936;51.660;5.616;2024-01-15T04:58:56;3.05;;;1.40;;
64543;SDS011;50936;51.660;5.616;2024-01-15T05:01:43;2.55;;;1.27;;
64543;SDS011;50936;51.660;5.616;2024-01-15T05:04:31;2.97;;;1.50;;
64543;SDS011;50936;51.660;5.616;2024-01-15T05:07:19;2.72;;;1.25;;
64543;SDS011;50936;51.660;5.616;2024-01-15T05:10:06;3.35;;;1.40;;
64543;SDS011;50936;51.660;5.616;2024-01-15T05:12:54;2.70;;;1.48;;
64543;SDS011;50936;51.660;5.616;2024-01-15T05:15:41;2.95;;;1.50;;
64543;SDS011;50936;51.660;5.616;2024-01-15T05:18:29;2.15;;;1.40;;
64543;SDS011;50936;51.660;5.616;2024-01-15T05:21:16;2.40;;;1.20;;
64543;SDS011;50936;51.660;5.616;2024-01-15T05:24:04;3.88;;;1.20;;
64543;SDS011;50936;51.660;5.616;2024-01-15T05:26:51;2.72;;;1.40;;
64543;SDS011;50936;51.660;5.616;2024-01-15T05:29:38;2.45;;;1.23;;
64543;SDS011;50936;51.660;5.616;2024-01-15T05:32:26;2.50;;;1.50;;
64543;SDS011;50936;51.660;5.616;2024-01-15T05:35:13;2.58;;;1.17;;
64543;SDS011;50936;51.660;5.616;2024-01-15T05:38:00;1.98;;;1.23;;
64543;SDS011;50936;51.660;5.616;2024-01-15T05:40:47;2.35;;;1.20;;
64543;SDS011;50936;51.660;5.616;2024-01-15T05:43:34;1.98;;;1.15;;
64543;SDS011;50936;51.660;5.616;2024-01-15T05:46:21;2.33;;;1.30;;
64543;SDS011;50936;51.660;5.616;2024-01-15T05:49:08;3.08;;;1.33;;
64543;SDS011;50936;51.660;5.616;2024-01-15T05:51:56;2.45;;;1.35;;
64543;SDS011;50936;51.660;5.616;2024-01-15T05:54:43;1.77;;;1.02;;
64543;SDS011;50936;51.660;5.616;2024-01-15T05:57:30;2.25;;;1.10;;
64543;SDS011;50936;51.660;5.616;2024-01-15T06:00:18;1.45;;;1.05;;
64543;SDS011;50936;51.660;5.616;2024-01-15T06:03:05;1.60;;;1.00;;
64543;SDS011;50936;51.660;5.616;2024-01-15T06:05:53;2.63;;;1.10;;
64543;SDS011;50936;51.660;5.616;2024-01-15T06:08:40;2.42;;;1.00;;
64543;SDS011;50936;51.660;5.616;2024-01-15T06:11:33;1.73;;;1.10;;
64543;SDS011;50936;51.660;5.616;2024-01-15T06:14:21;3.35;;;1.08;;
64543;SDS011;50936;51.660;5.616;2024-01-15T06:17:08;2.65;;;1.15;;
64543;SDS011;50936;51.660;5.616;2024-01-15T06:19:55;1.73;;;0.95;;
64543;SDS011;50936;51.660;5.616;2024-01-15T06:22:44;1.95;;;1.00;;
64543;SDS011;50936;51.660;5.616;2024-01-15T06:25:31;2.50;;;1.20;;
64543;SDS011;50936;51.660;5.616;2024-01-15T06:28:18;1.25;;;0.82;;
64543;SDS011;50936;51.660;5.616;2024-01-15T06:31:08;2.08;;;1.10;;
64543;SDS011;50936;51.660;5.616;2024-01-15T06:33:56;2.92;;;1.05;;
64543;SDS011;50936;51.660;5.616;2024-01-15T06:36:43;1.95;;;1.00;;
64543;SDS011;50936;51.660;5.616;2024-01-15T06:39:30;1.10;;;1.00;;
64543;SDS011;50936;51.660;5.616;2024-01-15T06:42:18;2.03;;;1.02;;
64543;SDS011;50936;51.660;5.616;2024-01-15T06:45:05;2.75;;;1.05;;
64543;SDS011;50936;51.660;5.616;2024-01-15T06:47:53;2.13;;;0.93;;
64543;SDS011;50936;51.660;5.616;2024-01-15T06:50:41;2.13;;;1.10;;
64543;SDS011;50936;51.660;5.616;2024-01-15T06:53:28;2.03;;;0.98;;
64543;SDS011;50936;51.660;5.616;2024-01-15T06:56:15;2.00;;;1.10;;
64543;SDS011;50936;51.660;5.616;2024-01-15T06:59:02;2.00;;;0.90;;
64543;SDS011;50936;51.660;5.616;2024-01-15T07:01:49;1.63;;;0.90;;
64543;SDS011;50936;51.660;5.616;2024-01-15T07:04:37;2.22;;;1.00;;
64543;SDS011;50936;51.660;5.616;2024-01-15T07:07:28;2.63;;;1.05;;
64543;SDS011;50936;51.660;5.616;2024-01-15T07:10:16;2.90;;;1.20;;
64543;SDS011;50936;51.660;5.616;2024-01-15T07:13:04;2.92;;;1.17;;
64543;SDS011;50936;51.660;5.616;2024-01-15T07:15:52;3.65;;;1.10;;
64543;SDS011;50936;51.660;5.616;2024-01-15T07:18:39;1.92;;;0.90;;
64543;SDS011;50936;51.660;5.616;2024-01-15T07:21:27;2.47;;;1.00;;
64543;SDS011;50936;51.660;5.616;2024-01-15T07:24:14;2.45;;;1.02;;
64543;SDS011;50936;51.660;5.616;2024-01-15T07:27:01;4.97;;;1.23;;
64543;SDS011;50936;51.660;5.616;2024-01-15T07:29:48;5.68;;;1.50;;
64543;SDS011;50936;51.660;5.616;2024-01-15T07:32:36;17.25;;;8.55;;
64543;SDS011;50936;51.660;5.616;2024-01-15T07:35:23;26.20;;;10.60;;
64543;SDS011;50936;51.660;5.616;2024-01-15T07:38:10;25.45;;;8.98;;
64543;SDS011;50936;51.660;5.616;2024-01-15T07:40:58;25.52;;;9.48;;
64543;SDS011;50936;51.660;5.616;2024-01-15T07:43:46;19.35;;;7.72;;
64543;SDS011;50936;51.660;5.616;2024-01-15T07:46:33;18.58;;;7.25;;
64543;SDS011;50936;51.660;5.616;2024-01-15T07:49:20;17.48;;;6.07;;
64543;SDS011;50936;51.660;5.616;2024-01-15T07:52:10;17.98;;;6.75;;
64543;SDS011;50936;51.660;5.616;2024-01-15T07:54:59;13.38;;;5.35;;
64543;SDS011;50936;51.660;5.616;2024-01-15T07:57:47;14.70;;;5.28;;
64543;SDS011;50936;51.660;5.616;2024-01-15T08:00:48;14.05;;;4.78;;
64543;SDS011;50936;51.660;5.616;2024-01-15T08:03:35;12.77;;;4.30;;
64543;SDS011;50936;51.660;5.616;2024-01-15T08:06:22;12.30;;;4.68;;
64543;SDS011;50936;51.660;5.616;2024-01-15T08:09:10;14.60;;;4.22;;
64543;SDS011;50936;51.660;5.616;2024-01-15T08:11:59;12.73;;;4.28;;
64543;SDS011;50936;51.660;5.616;2024-01-15T08:14:46;12.43;;;4.50;;
64543;SDS011;50936;51.660;5.616;2024-01-15T08:17:33;11.85;;;4.32;;
64543;SDS011;50936;51.660;5.616;2024-01-15T08:20:21;13.02;;;4.28;;
64543;SDS011;50936;51.660;5.616;2024-01-15T08:23:08;12.98;;;4.68;;
64543;SDS011;50936;51.660;5.616;2024-01-15T08:25:56;15.43;;;4.68;;
64543;SDS011;50936;51.660;5.616;2024-01-15T08:28:43;13.70;;;3.72;;
64543;SDS011;50936;51.660;5.616;2024-01-15T08:31:30;8.30;;;3.20;;
64543;SDS011;50936;51.660;5.616;2024-01-15T08:34:18;13.00;;;4.05;;
64543;SDS011;50936;51.660;5.616;2024-01-15T08:37:06;11.68;;;4.10;;
64543;SDS011;50936;51.660;5.616;2024-01-15T08:39:53;11.60;;;3.75;;
64543;SDS011;50936;51.660;5.616;2024-01-15T08:42:40;11.65;;;3.65;;
64543;SDS011;50936;51.660;5.616;2024-01-15T08:45:28;14.65;;;4.18;;
64543;SDS011;50936;51.660;5.616;2024-01-15T08:48:18;10.25;;;3.83;;
64543;SDS011;50936;51.660;5.616;2024-01-15T08:51:05;12.88;;;3.80;;
64543;SDS011;50936;51.660;5.616;2024-01-15T08:53:53;10.27;;;3.78;;
64543;SDS011;50936;51.660;5.616;2024-01-15T08:56:40;13.27;;;4.07;;
64543;SDS011;50936;51.660;5.616;2024-01-15T08:59:27;17.15;;;4.13;;
64543;SDS011;50936;51.660;5.616;2024-01-15T09:02:14;11.95;;;3.42;;
64543;SDS011;50936;51.660;5.616;2024-01-15T09:05:02;16.65;;;4.45;;
64543;SDS011;50936;51.660;5.616;2024-01-15T09:07:51;16.02;;;4.53;;
64543;SDS011;50936;51.660;5.616;2024-01-15T09:10:39;10.43;;;3.88;;
64543;SDS011;50936;51.660;5.616;2024-01-15T09:13:26;13.27;;;3.92;;
64543;SDS011;50936;51.660;5.616;2024-01-15T09:16:13;12.68;;;4.13;;
64543;SDS011;50936;51.660;5.616;2024-01-15T09:19:01;13.85;;;4.45;;
64543;SDS011;50936;51.660;5.616;2024-01-15T09:21:48;12.52;;;3.72;;
64543;SDS011;50936;51.660;5.616;2024-01-15T09:24:35;14.20;;;3.63;;
64543;SDS011;50936;51.660;5.616;2024-01-15T09:27:23;12.65;;;3.90;;
64543;SDS011;50936;51.660;5.616;2024-01-15T09:30:12;12.50;;;3.85;;
64543;SDS011;50936;51.660;5.616;2024-01-15T09:33:00;13.13;;;3.67;;
64543;SDS011;50936;51.660;5.616;2024-01-15T09:35:48;12.20;;;4.30;;
64543;SDS011;50936;51.660;5.616;2024-01-15T09:38:35;12.10;;;3.95;;
64543;SDS011;50936;51.660;5.616;2024-01-15T09:41:22;14.20;;;3.80;;
64543;SDS011;50936;51.660;5.616;2024-01-15T09:44:10;12.85;;;3.92;;
64543;SDS011;50936;51.660;5.616;2024-01-15T09:46:58;10.45;;;3.83;;
64543;SDS011;50936;51.660;5.616;2024-01-15T09:49:47;12.38;;;3.78;;
64543;SDS011;50936;51.660;5.616;2024-01-15T09:52:35;12.38;;;3.90;;
64543;SDS011;50936;51.660;5.616;2024-01-15T09:55:23;14.13;;;4.05;;
64543;SDS011;50936;51.660;5.616;2024-01-15T09:58:10;13.93;;;4.03;;
64543;SDS011;50936;51.660;5.616;2024-01-15T10:00:58;13.13;;;4.10;;
64543;SDS011;50936;51.660;5.616;2024-01-15T10:03:52;13.68;;;4.93;;
64543;SDS011;50936;51.660;5.616;2024-01-15T10:06:43;13.80;;;4.28;;
64543;SDS011;50936;51.660;5.616;2024-01-15T10:12:21;10.40;;;3.65;;
64543;SDS011;50936;51.660;5.616;2024-01-15T10:15:10;12.82;;;3.88;;
64543;SDS011;50936;51.660;5.616;2024-01-15T10:17:59;8.98;;;3.38;;
64543;SDS011;50936;51.660;5.616;2024-01-15T10:20:46;15.07;;;3.65;;
64543;SDS011;50936;51.660;5.616;2024-01-15T10:23:34;11.65;;;3.85;;
64543;SDS011;50936;51.660;5.616;2024-01-15T10:26:25;11.88;;;3.65;;
64543;SDS011;50936;51.660;5.616;2024-01-15T10:29:14;9.95;;;3.33;;
64543;SDS011;50936;51.660;5.616;2024-01-15T10:32:08;11.60;;;4.28;;
64543;SDS011;50936;51.660;5.616;2024-01-15T10:34:56;10.10;;;3.60;;
64543;SDS011;50936;51.660;5.616;2024-01-15T10:37:44;15.10;;;4.28;;
64543;SDS011;50936;51.660;5.616;2024-01-15T10:40:31;8.57;;;3.33;;
64543;SDS011;50936;51.660;5.616;2024-01-15T10:43:19;9.60;;;3.53;;
64543;SDS011;50936;51.660;5.616;2024-01-15T10:46:07;10.13;;;3.83;;
64543;SDS011;50936;51.660;5.616;2024-01-15T10:48:55;11.38;;;3.05;;
64543;SDS011;50936;51.660;5.616;2024-01-15T10:51:42;12.70;;;3.97;;
64543;SDS011;50936;51.660;5.616;2024-01-15T10:54:30;17.08;;;4.65;;
64543;SDS011;50936;51.660;5.616;2024-01-15T10:57:20;10.27;;;3.50;;
64543;SDS011;50936;51.660;5.616;2024-01-15T11:00:09;14.25;;;3.80;;
64543;SDS011;50936;51.660;5.616;2024-01-15T11:03:01;14.65;;;3.72;;
64543;SDS011;50936;51.660;5.616;2024-01-15T11:05:53;13.52;;;3.70;;
64543;SDS011;50936;51.660;5.616;2024-01-15T11:08:40;13.23;;;4.15;;
64543;SDS011;50936;51.660;5.616;2024-01-15T11:11:29;15.52;;;4.45;;
64543;SDS011;50936;51.660;5.616;2024-01-15T11:14:38;10.05;;;3.85;;
64543;SDS011;50936;51.660;5.616;2024-01-15T11:17:27;12.13;;;4.30;;
64543;SDS011;50936;51.660;5.616;2024-01-15T11:24:02;35.90;;;11.40;;
64543;SDS011;50936;51.660;5.616;2024-01-15T11:26:53;50.28;;;13.18;;
64543;SDS011;50936;51.660;5.616;2024-01-15T11:29:41;50.85;;;13.32;;
64543;SDS011;50936;51.660;5.616;2024-01-15T11:32:33;43.05;;;11.68;;
64543;SDS011;50936;51.660;5.616;2024-01-15T11:35:20;41.05;;;11.85;;
64543;SDS011;50936;51.660;5.616;2024-01-15T11:38:09;41.30;;;11.73;;
64543;SDS011;50936;51.660;5.616;2024-01-15T11:40:58;39.42;;;11.38;;
64543;SDS011;50936;51.660;5.616;2024-01-15T11:43:46;38.33;;;10.43;;
64543;SDS011;50936;51.660;5.616;2024-01-15T11:46:33;33.25;;;10.38;;
64543;SDS011;50936;51.660;5.616;2024-01-15T11:53:36;34.63;;;10.32;;
64543;SDS011;50936;51.660;5.616;2024-01-15T11:56:23;36.90;;;9.90;;
64543;SDS011;50936;51.660;5.616;2024-01-15T11:59:10;34.88;;;9.38;;
64543;SDS011;50936;51.660;5.616;2024-01-15T12:01:58;31.85;;;8.38;;
64543;SDS011;50936;51.660;5.616;2024-01-15T12:04:45;31.42;;;9.20;;
64543;SDS011;50936;51.660;5.616;2024-01-15T12:07:32;31.05;;;8.75;;
64543;SDS011;50936;51.660;5.616;2024-01-15T12:10:20;28.77;;;8.60;;
64543;SDS011;50936;51.660;5.616;2024-01-15T12:13:14;32.78;;;8.45;;
64543;SDS011;50936;51.660;5.616;2024-01-15T12:16:02;22.58;;;7.30;;
64543;SDS011;50936;51.660;5.616;2024-01-15T12:18:51;30.33;;;8.60;;
64543;SDS011;50936;51.660;5.616;2024-01-15T12:21:39;25.02;;;7.32;;
64543;SDS011;50936;51.660;5.616;2024-01-15T12:24:26;26.30;;;8.52;;
64543;SDS011;50936;51.660;5.616;2024-01-15T12:27:14;22.20;;;6.88;;
64543;SDS011;50936;51.660;5.616;2024-01-15T12:30:01;24.90;;;7.78;;
64543;SDS011;50936;51.660;5.616;2024-01-15T12:32:49;24.10;;;7.30;;
64543;SDS011;50936;51.660;5.616;2024-01-15T12:35:37;21.77;;;6.90;;
64543;SDS011;50936;51.660;5.616;2024-01-15T12:38:24;24.58;;;6.78;;
64543;SDS011;50936;51.660;5.616;2024-01-15T12:41:12;23.10;;;6.85;;
64543;SDS011;50936;51.660;5.616;2024-01-15T12:43:59;21.13;;;5.85;;
64543;SDS011;50936;51.660;5.616;2024-01-15T12:46:47;23.23;;;6.63;;
64543;SDS011;50936;51.660;5.616;2024-01-15T12:49:36;23.77;;;6.60;;
64543;SDS011;50936;51.660;5.616;2024-01-15T12:52:26;18.63;;;5.97;;
64543;SDS011;50936;51.660;5.616;2024-01-15T12:55:17;21.45;;;6.07;;
64543;SDS011;50936;51.660;5.616;2024-01-15T12:58:04;22.20;;;6.82;;
64543;SDS011;50936;51.660;5.616;2024-01-15T13:00:51;16.92;;;5.18;;
64543;SDS011;50936;51.660;5.616;2024-01-15T13:03:40;20.10;;;5.88;;
64543;SDS011;50936;51.660;5.616;2024-01-15T13:06:28;17.67;;;6.07;;
64543;SDS011;50936;51.660;5.616;2024-01-15T13:09:15;16.63;;;5.28;;
64543;SDS011;50936;51.660;5.616;2024-01-15T13:12:03;15.50;;;4.80;;
64543;SDS011;50936;51.660;5.616;2024-01-15T13:14:52;16.33;;;5.25;;
64543;SDS011;50936;51.660;5.616;2024-01-15T13:17:39;14.30;;;4.85;;
64543;SDS011;50936;51.660;5.616;2024-01-15T13:20:27;14.77;;;4.57;;
64543;SDS011;50936;51.660;5.616;2024-01-15T13:23:14;20.30;;;5.63;;
64543;SDS011;50936;51.660;5.616;2024-01-15T13:26:01;17.83;;;4.80;;
64543;SDS011;50936;51.660;5.616;2024-01-15T13:28:49;16.80;;;5.13;;
64543;SDS011;50936;51.660;5.616;2024-01-15T13:31:36;16.17;;;4.55;;
64543;SDS011;50936;51.660;5.616;2024-01-15T13:34:25;14.23;;;4.78;;
64543;SDS011;50936;51.660;5.616;2024-01-15T13:37:12;15.10;;;4.43;;
64543;SDS011;50936;51.660;5.616;2024-01-15T13:39:59;13.85;;;4.40;;
64543;SDS011;50936;51.660;5.616;2024-01-15T13:42:47;13.75;;;4.38;;
64543;SDS011;50936;51.660;5.616;2024-01-15T13:45:35;15.43;;;4.40;;
64543;SDS011;50936;51.660;5.616;2024-01-15T13:48:24;14.25;;;4.30;;
64543;SDS011;50936;51.660;5.616;2024-01-15T13:51:11;11.95;;;4.25;;
64543;SDS011;50936;51.660;5.616;2024-01-15T13:53:58;13.65;;;4.15;;
64543;SDS011;50936;51.660;5.616;2024-01-15T13:56:46;12.10;;;4.18;;
64543;SDS011;50936;51.660;5.616;2024-01-15T13:59:34;12.25;;;4.03;;
64543;SDS011;50936;51.660;5.616;2024-01-15T14:02:21;13.52;;;3.95;;
64543;SDS011;50936;51.660;5.616;2024-01-15T14:05:11;15.65;;;4.13;;
64543;SDS011;50936;51.660;5.616;2024-01-15T14:07:59;11.75;;;3.72;;
64543;SDS011;50936;51.660;5.616;2024-01-15T14:10:47;9.82;;;3.20;;
64543;SDS011;50936;51.660;5.616;2024-01-15T14:13:34;10.60;;;3.50;;
64543;SDS011;50936;51.660;5.616;2024-01-15T14:16:21;11.30;;;3.67;;
64543;SDS011;50936;51.660;5.616;2024-01-15T14:19:11;14.27;;;3.70;;
64543;SDS011;50936;51.660;5.616;2024-01-15T14:21:59;11.35;;;3.33;;
64543;SDS011;50936;51.660;5.616;2024-01-15T14:24:46;12.02;;;3.85;;
64543;SDS011;50936;51.660;5.616;2024-01-15T14:27:33;12.65;;;3.58;;
64543;SDS011;50936;51.660;5.616;2024-01-15T14:30:21;10.13;;;3.28;;
64543;SDS011;50936;51.660;5.616;2024-01-15T14:33:08;11.38;;;3.45;;
64543;SDS011;50936;51.660;5.616;2024-01-15T14:35:56;10.80;;;3.38;;
64543;SDS011;50936;51.660;5.616;2024-01-15T14:38:43;13.43;;;3.53;;
64543;SDS011;50936;51.660;5.616;2024-01-15T14:41:30;9.82;;;3.33;;
64543;SDS011;50936;51.660;5.616;2024-01-15T14:44:17;9.75;;;2.80;;
64543;SDS011;50936;51.660;5.616;2024-01-15T14:47:05;9.82;;;3.15;;
64543;SDS011;50936;51.660;5.616;2024-01-15T14:49:52;11.68;;;3.63;;
64543;SDS011;50936;51.660;5.616;2024-01-15T14:52:39;9.80;;;2.97;;
64543;SDS011;50936;51.660;5.616;2024-01-15T14:55:29;7.50;;;2.78;;
64543;SDS011;50936;51.660;5.616;2024-01-15T14:58:16;8.60;;;2.85;;
64543;SDS011;50936;51.660;5.616;2024-01-15T15:01:03;7.88;;;2.50;;
64543;SDS011;50936;51.660;5.616;2024-01-15T15:03:51;8.77;;;2.47;;
64543;SDS011;50936;51.660;5.616;2024-01-15T15:06:39;7.75;;;2.75;;
64543;SDS011;50936;51.660;5.616;2024-01-15T15:09:27;7.82;;;2.92;;
64543;SDS011;50936;51.660;5.616;2024-01-15T15:12:14;6.05;;;2.35;;
64543;SDS011;50936;51.660;5.616;2024-01-15T15:15:01;7.15;;;2.35;;
64543;SDS011;50936;51.660;5.616;2024-01-15T15:17:56;6.53;;;2.88;;
64543;SDS011;50936;51.660;5.616;2024-01-15T15:20:44;8.40;;;2.70;;
64543;SDS011;50936;51.660;5.616;2024-01-15T15:23:32;7.88;;;2.88;;
64543;SDS011;50936;51.660;5.616;2024-01-15T15:26:19;6.97;;;2.00;;
64543;SDS011;50936;51.660;5.616;2024-01-15T15:29:06;9.23;;;2.80;;
64543;SDS011;50936;51.660;5.616;2024-01-15T15:31:54;7.43;;;2.45;;
64543;SDS011;50936;51.660;5.616;2024-01-15T15:34:41;6.95;;;2.55;;
64543;SDS011;50936;51.660;5.616;2024-01-15T15:37:28;5.18;;;2.13;;
64543;SDS011;50936;51.660;5.616;2024-01-15T15:40:17;7.90;;;2.60;;
64543;SDS011;50936;51.660;5.616;2024-01-15T15:43:04;8.00;;;2.33;;
64543;SDS011;50936;51.660;5.616;2024-01-15T15:45:52;7.25;;;2.20;;
64543;SDS011;50936;51.660;5.616;2024-01-15T15:48:45;9.38;;;2.50;;
64543;SDS011;50936;51.660;5.616;2024-01-15T15:51:32;7.00;;;2.30;;
64543;SDS011;50936;51.660;5.616;2024-01-15T15:54:22;6.50;;;1.92;;
64543;SDS011;50936;51.660;5.616;2024-01-15T15:57:09;4.95;;;1.80;;
64543;SDS011;50936;51.660;5.616;2024-01-15T15:59:56;6.38;;;1.70;;
64543;SDS011;50936;51.660;5.616;2024-01-15T16:02:44;4.20;;;1.52;;
64543;SDS011;50936;51.660;5.616;2024-01-15T16:05:32;5.85;;;2.00;;
64543;SDS011;50936;51.660;5.616;2024-01-15T16:08:34;7.25;;;2.30;;
64543;SDS011;50936;51.660;5.616;2024-01-15T16:11:21;6.15;;;2.00;;
64543;SDS011;50936;51.660;5.616;2024-01-15T16:14:09;4.55;;;1.67;;
64543;SDS011;50936;51.660;5.616;2024-01-15T16:16:56;5.65;;;1.80;;
64543;SDS011;50936;51.660;5.616;2024-01-15T16:20:04;5.90;;;1.95;;
64543;SDS011;50936;51.660;5.616;2024-01-15T16:26:20;6.68;;;1.98;;
64543;SDS011;50936;51.660;5.616;2024-01-15T16:29:08;7.07;;;1.83;;
64543;SDS011;50936;51.660;5.616;2024-01-15T16:31:56;5.50;;;1.90;;
64543;SDS011;50936;51.660;5.616;2024-01-15T16:34:43;5.50;;;1.90;;
64543;SDS011;50936;51.660;5.616;2024-01-15T16:37:30;5.63;;;1.88;;
64543;SDS011;50936;51.660;5.616;2024-01-15T16:40:18;5.55;;;1.88;;
64543;SDS011;50936;51.660;5.616;2024-01-15T16:43:05;4.75;;;1.35;;
64543;SDS011;50936;51.660;5.616;2024-01-15T16:45:56;5.13;;;1.60;;
64543;SDS011;50936;51.660;5.616;2024-01-15T16:48:44;5.45;;;1.40;;
64543;SDS011;50936;51.660;5.616;2024-01-15T16:51:31;5.40;;;1.80;;
64543;SDS011;50936;51.660;5.616;2024-01-15T16:54:18;5.05;;;1.65;;
64543;SDS011;50936;51.660;5.616;2024-01-15T16:57:06;5.05;;;1.65;;
64543;SDS011;50936;51.660;5.616;2024-01-15T16:59:53;4.93;;;1.40;;
64543;SDS011;50936;51.660;5.616;2024-01-15T17:02:40;5.38;;;1.83;;